Time;durP1;ratioP1;P1;durP2;ratioP2;P2;SDS_P1;SDS_P2;PMS_P1;PMS_P2;Temp;Humidity;BMP_temperature;BMP_pressure;BME280_temperature;BME280_humidity;BME280_pressure;Samples;Min_cycle;Max_cycle;Signal;HPM_P1;HPM_P2
2023/08/25 00:01:13;;;;;;;13.07;11.77;;;20.20;99.90;;;;;;5046866;28;20101;-51
2023/08/25 00:03:38;;;;;;;;;;;20.30;99.90;;;;;;5048820;28;20111;-52
2023/08/25 00:06:05;;;;;;;15.70;12.27;;;20.20;99.90;;;;;;5048143;28;19916;-52
2023/08/25 00:08:30;;;;;;;14.77;11.68;;;20.20;99.90;;;;;;5047159;28;20393;-52
2023/08/25 00:10:56;;;;;;;15.45;12.95;;;20.10;99.90;;;;;;5049149;28;20029;-53
2023/08/25 00:13:21;;;;;;;;;;;20.10;99.90;;;;;;5046560;28;20029;-52
2023/08/25 00:15:49;;;;;;;14.85;12.55;;;20.00;99.90;;;;;;5047367;28;20021;-52
2023/08/25 00:18:15;;;;;;;14.70;12.63;;;20.00;99.90;;;;;;5047125;28;20502;-53
2023/08/25 00:20:41;;;;;;;13.30;12.00;;;20.00;99.90;;;;;;5044602;28;20041;-52
2023/08/25 00:23:07;;;;;;;16.17;13.38;;;20.00;99.90;;;;;;5048758;28;20048;-53
2023/08/25 00:25:33;;;;;;;15.68;13.57;;;19.90;99.90;;;;;;5048299;28;20041;-51
2023/08/25 00:27:59;;;;;;;14.18;12.68;;;19.90;99.90;;;;;;5047571;28;20029;-53
2023/08/25 00:30:25;;;;;;;;;;;19.90;99.90;;;;;;5043222;28;20544;-55
2023/08/25 00:32:50;;;;;;;14.07;12.75;;;19.90;99.90;;;;;;5048886;28;19968;-53
2023/08/25 00:35:16;;;;;;;;;;;19.90;99.90;;;;;;5031122;28;20033;-51
2023/08/25 00:37:42;;;;;;;16.35;13.52;;;19.90;99.90;;;;;;5048785;28;20371;-54
2023/08/25 00:40:08;;;;;;;14.60;13.18;;;19.90;99.90;;;;;;5045885;28;20461;-52
2023/08/25 00:42:33;;;;;;;16.13;14.50;;;19.80;99.90;;;;;;5048943;28;20060;-53
2023/08/25 00:44:59;;;;;;;15.68;14.20;;;19.80;99.90;;;;;;5047915;28;20041;-52
2023/08/25 00:47:25;;;;;;;19.83;14.57;;;19.70;99.90;;;;;;5048537;28;20534;-55
2023/08/25 00:49:52;;;;;;;18.88;13.50;;;19.70;99.90;;;;;;5047845;28;20025;-51
2023/08/25 00:52:19;;;;;;;19.55;15.15;;;19.70;99.90;;;;;;5048816;28;20037;-52
2023/08/25 00:54:47;;;;;;;18.02;14.77;;;19.70;99.90;;;;;;5048432;28;20064;-53
2023/08/25 00:57:12;;;;;;;18.05;14.82;;;19.70;99.90;;;;;;5045419;28;20521;-51
2023/08/25 00:59:38;;;;;;;18.17;14.57;;;19.70;99.90;;;;;;5046979;28;20041;-51
2023/08/25 01:02:04;;;;;;;;;;;19.70;99.90;;;;;;5048702;28;20072;-52
2023/08/25 01:04:31;;;;;;;19.20;15.95;;;19.60;99.90;;;;;;5048697;28;19962;-54
2023/08/25 01:06:57;;;;;;;17.95;16.02;;;19.60;99.90;;;;;;5048262;28;20041;-51
2023/08/25 01:09:24;;;;;;;17.40;15.68;;;19.60;99.90;;;;;;5030051;28;20041;-55
2023/08/25 01:12:09;;;;;;;19.17;15.38;;;19.60;99.90;;;;;;5048543;28;20060;-51
2023/08/25 01:14:41;;;;;;;20.00;14.98;;;19.60;99.90;;;;;;5047839;28;20375;-51
2023/08/25 01:17:33;;;;;;;20.52;16.90;;;19.50;99.90;;;;;;5047986;28;20053;-52
2023/08/25 01:20:06;;;;;;;19.25;17.23;;;19.60;99.90;;;;;;5014246;28;20052;-50
2023/08/25 01:22:50;;;;;;;17.70;15.85;;;19.60;99.90;;;;;;5047450;28;20131;-54
2023/08/25 01:25:24;;;;;;;21.33;17.00;;;19.60;99.90;;;;;;5049462;28;20033;-51
2023/08/25 01:27:50;;;;;;;21.80;17.70;;;19.60;99.90;;;;;;5047424;28;20084;-53
2023/08/25 01:30:16;;;;;;;19.27;16.38;;;19.50;99.90;;;;;;5047829;28;20660;-52
2023/08/25 01:32:41;;;;;;;;;;;19.50;99.90;;;;;;5049836;28;20033;-52
2023/08/25 01:35:08;;;;;;;19.55;17.65;;;19.60;99.90;;;;;;5054343;28;20003;-51
2023/08/25 01:37:41;;;;;;;22.50;18.08;;;19.60;99.90;;;;;;5054346;28;20520;-51
2023/08/25 01:40:15;;;;;;;22.52;18.13;;;19.60;99.90;;;;;;5052518;28;20045;-52
2023/08/25 01:42:45;;;;;;;20.08;17.90;;;19.60;99.90;;;;;;5035034;28;20032;-54
2023/08/25 01:45:12;;;;;;;21.83;19.55;;;19.60;99.90;;;;;;5052537;28;20490;-52
2023/08/25 01:47:40;;;;;;;22.58;20.38;;;19.60;99.90;;;;;;5053878;28;20052;-53
2023/08/25 01:50:09;;;;;;;22.77;19.98;;;19.60;99.90;;;;;;5053764;28;20051;-55
2023/08/25 01:52:35;;;;;;;24.23;21.05;;;19.60;99.90;;;;;;5054776;28;20120;-52
2023/08/25 01:55:02;;;;;;;23.85;21.25;;;19.60;99.90;;;;;;5054135;28;20115;-54
2023/08/25 01:57:28;;;;;;;22.90;19.75;;;19.70;99.90;;;;;;5054704;28;20051;-52
2023/08/25 01:59:53;;;;;;;23.83;21.33;;;19.70;99.90;;;;;;5053282;28;20041;-55
2023/08/25 02:02:19;;;;;;;;;;;19.70;99.90;;;;;;5055025;28;20447;-51
2023/08/25 02:04:44;;;;;;;29.00;21.70;;;19.70;99.90;;;;;;5054482;28;19924;-51
2023/08/25 02:07:10;;;;;;;;;;;19.70;99.90;;;;;;5054486;28;20072;-55
2023/08/25 02:09:35;;;;;;;23.58;20.90;;;19.70;99.90;;;;;;5053856;28;20298;-51
2023/08/25 02:12:01;;;;;;;;;;;19.70;99.90;;;;;;5055107;28;20056;-52
2023/08/25 02:14:26;;;;;;;28.65;21.38;;;19.70;99.90;;;;;;5053867;28;19921;-55
2023/08/25 02:16:52;;;;;;;;;;;19.70;99.90;;;;;;5051810;28;20068;-54
2023/08/25 02:19:17;;;;;;;23.92;21.10;;;19.70;99.90;;;;;;5053770;28;19917;-51
2023/08/25 02:21:44;;;;;;;25.60;21.80;;;19.60;99.90;;;;;;5053526;28;20083;-52
2023/08/25 02:24:10;;;;;;;25.60;22.92;;;19.70;99.90;;;;;;5053777;28;20049;-52
2023/08/25 02:26:35;;;;;;;28.13;21.92;;;19.60;99.90;;;;;;5054094;28;20596;-51
2023/08/25 02:29:01;;;;;;;26.00;23.17;;;19.60;99.90;;;;;;5034983;28;20037;-54
2023/08/25 02:31:26;;;;;;;;;;;19.60;99.90;;;;;;5054770;28;20045;-51
2023/08/25 02:33:52;;;;;;;29.98;23.95;;;19.60;99.90;;;;;;5054013;28;19920;-53
2023/08/25 02:36:17;;;;;;;;;;;19.60;99.90;;;;;;5049017;28;20112;-54
2023/08/25 02:38:43;;;;;;;28.63;25.15;;;19.60;99.90;;;;;;5050595;28;19923;-51
2023/08/25 02:41:08;;;;;;;;;;;19.60;99.90;;;;;;5053311;28;20045;-53
2023/08/25 02:43:34;;;;;;;27.48;24.55;;;19.60;99.90;;;;;;5049141;28;20340;-55
2023/08/25 02:45:59;;;;;;;;;;;19.60;99.90;;;;;;5050142;28;20048;-52
2023/08/25 02:48:25;;;;;;;33.83;25.85;;;19.60;99.90;;;;;;5049922;28;20278;-54
2023/08/25 02:50:50;;;;;;;;;;;19.60;99.90;;;;;;5051996;28;20033;-52
2023/08/25 02:53:16;;;;;;;31.13;26.33;;;19.50;99.90;;;;;;5052471;28;19978;-51
2023/08/25 02:55:41;;;;;;;;;;;19.60;99.90;;;;;;5052511;28;20478;-51
2023/08/25 02:58:07;;;;;;;36.50;27.67;;;19.60;99.90;;;;;;5052017;28;19994;-52
2023/08/25 03:00:33;;;;;;;;;;;19.60;99.90;;;;;;5050494;28;20039;-52
2023/08/25 03:02:58;;;;;;;31.35;27.27;;;19.50;99.90;;;;;;5051915;28;20444;-51
2023/08/25 03:05:24;;;;;;;;;;;19.60;99.90;;;;;;5051859;28;20033;-52
2023/08/25 03:07:53;;;;;;;32.90;27.67;;;19.50;99.90;;;;;;5051394;28;19921;-53
2023/08/25 03:10:19;;;;;;;35.15;29.10;;;19.50;99.90;;;;;;5050929;28;20059;-53
2023/08/25 03:12:44;;;;;;;31.67;28.08;;;19.50;99.90;;;;;;5051550;28;20047;-52
2023/08/25 03:15:10;;;;;;;;;;;19.40;99.90;;;;;;5046308;28;20033;-51
2023/08/25 03:17:36;;;;;;;36.65;29.63;;;19.40;99.90;;;;;;5051899;28;19917;-51
2023/08/25 03:20:02;;;;;;;;;;;19.40;99.90;;;;;;5050989;28;20037;-52
2023/08/25 03:22:28;;;;;;;34.20;29.00;;;19.30;99.90;;;;;;5051612;28;19971;-52
2023/08/25 03:24:54;;;;;;;;;;;19.30;99.90;;;;;;5051263;28;20402;-56
2023/08/25 03:27:19;;;;;;;32.78;28.00;;;19.30;99.90;;;;;;5051178;28;19971;-52
2023/08/25 03:29:45;;;;;;;;;;;19.30;99.90;;;;;;5050398;28;20037;-52
2023/08/25 03:32:10;;;;;;;36.95;29.02;;;19.20;99.90;;;;;;5051304;28;19916;-52
2023/08/25 03:34:36;;;;;;;;;;;19.20;99.90;;;;;;5051502;28;20052;-51
2023/08/25 03:37:03;;;;;;;39.08;31.90;;;19.10;99.90;;;;;;5050733;28;19939;-52
2023/08/25 03:39:29;;;;;;;40.28;32.35;;;19.10;99.90;;;;;;5050205;28;20052;-53
2023/08/25 03:41:55;;;;;;;49.53;36.10;;;19.10;99.90;;;;;;5045834;28;20090;-51
2023/08/25 03:44:20;;;;;;;;;;;19.10;99.90;;;;;;5051543;28;20109;-52
2023/08/25 03:46:46;;;;;;;39.72;33.30;;;19.10;99.90;;;;;;5050158;28;20038;-51
2023/08/25 03:49:11;;;;;;;;;;;19.00;99.90;;;;;;5050412;28;20040;-53
2023/08/25 03:51:37;;;;;;;39.08;31.27;;;19.10;99.90;;;;;;5049215;28;20468;-51
2023/08/25 03:54:06;;;;;;;;;;;19.00;99.90;;;;;;5045177;28;20040;-51
2023/08/25 03:56:31;;;;;;;39.45;29.50;;;19.10;99.90;;;;;;5050062;28;20026;-53
2023/08/25 03:58:57;;;;;;;37.08;31.55;;;19.00;99.90;;;;;;5045177;28;20095;-51
2023/08/25 04:01:23;;;;;;;36.42;29.98;;;19.00;99.90;;;;;;5050234;28;20033;-51
2023/08/25 04:03:48;;;;;;;35.53;29.85;;;19.00;99.90;;;;;;5050748;28;20037;-54
2023/08/25 04:06:14;;;;;;;35.53;30.70;;;19.00;99.90;;;;;;5050085;28;20025;-51
2023/08/25 04:08:39;;;;;;;;;;;19.00;99.90;;;;;;5050146;28;20037;-51
2023/08/25 04:11:05;;;;;;;35.63;28.92;;;19.00;99.90;;;;;;5049952;28;19924;-52
2023/08/25 04:13:30;;;;;;;;;;;19.00;99.90;;;;;;5050515;28;20482;-52
2023/08/25 04:15:57;;;;;;;37.97;29.65;;;19.00;99.90;;;;;;5049794;28;19921;-52
2023/08/25 04:18:24;;;;;;;32.85;28.98;;;19.00;99.90;;;;;;5050505;28;20070;-51
2023/08/25 04:20:50;;;;;;;37.47;31.98;;;19.00;99.90;;;;;;5032126;28;20052;-52
2023/08/25 04:23:16;;;;;;;47.92;36.38;;;18.90;99.90;;;;;;5049788;28;20389;-52
2023/08/25 04:25:42;;;;;;;86.05;65.00;;;18.90;99.90;;;;;;5049375;28;20040;-53
2023/08/25 04:28:08;;;;;;;109.63;88.40;;;18.90;99.90;;;;;;5049732;28;20383;-53
2023/08/25 04:30:34;;;;;;;90.32;75.28;;;18.80;99.90;;;;;;5048832;28;20166;-56
2023/08/25 04:32:59;;;;;;;54.95;42.05;;;18.80;99.90;;;;;;5050717;28;20083;-51
2023/08/25 04:35:25;;;;;;;;;;;18.80;99.90;;;;;;5050480;28;20526;-53
2023/08/25 04:37:50;;;;;;;51.72;38.08;;;18.80;99.90;;;;;;5049609;28;19928;-54
2023/08/25 04:40:20;;;;;;;60.95;41.60;;;18.80;99.90;;;;;;5049340;28;20029;-55
2023/08/25 04:42:45;;;;;;;55.13;39.10;;;18.70;99.90;;;;;;5049892;28;20152;-52
2023/08/25 04:45:13;;;;;;;51.85;39.28;;;18.70;99.90;;;;;;5049743;28;20116;-51
2023/08/25 04:47:39;;;;;;;57.70;41.90;;;18.70;99.90;;;;;;5044266;28;20507;-53
2023/08/25 04:50:07;;;;;;;62.33;43.83;;;18.70;99.90;;;;;;5049017;28;20064;-53
2023/08/25 04:52:36;;;;;;;80.13;48.92;;;18.70;99.90;;;;;;5049445;28;20044;-52
2023/08/25 04:55:05;;;;;;;69.93;45.70;;;18.70;99.90;;;;;;5048815;28;20029;-51
2023/08/25 04:57:31;;;;;;;122.57;58.08;;;18.70;99.90;;;;;;5049710;28;20033;-52
2023/08/25 04:59:58;;;;;;;102.97;51.17;;;18.70;99.90;;;;;;5048241;28;20044;-51
2023/08/25 05:02:23;;;;;;;;;;;18.70;99.90;;;;;;5047309;28;20067;-54
2023/08/25 05:04:49;;;;;;;103.10;52.90;;;18.70;99.90;;;;;;5044635;28;19931;-51
2023/08/25 05:07:15;;;;;;;96.22;52.35;;;18.70;99.90;;;;;;5030800;28;20048;-53
2023/08/25 05:09:40;;;;;;;212.40;65.63;;;18.70;99.90;;;;;;5046481;28;20072;-51
2023/08/25 05:12:08;;;;;;;167.75;63.80;;;18.70;99.90;;;;;;5048603;28;20039;-52
2023/08/25 05:14:33;;;;;;;178.45;60.20;;;18.70;99.90;;;;;;5045224;28;20029;-52
2023/08/25 05:16:59;;;;;;;206.25;64.18;;;18.70;99.90;;;;;;5048626;28;20592;-55
2023/08/25 05:19:24;;;;;;;129.13;53.88;;;18.70;99.90;;;;;;5048562;28;20101;-51
2023/08/25 05:21:50;;;;;;;134.38;54.67;;;18.70;99.90;;;;;;5050015;28;20041;-53
2023/08/25 05:24:22;;;;;;;;;;;18.70;99.90;;;;;;5049335;28;20044;-51
2023/08/25 05:26:51;;;;;;;129.65;50.55;;;18.60;99.90;;;;;;5047486;28;19916;-51
2023/08/25 05:29:18;;;;;;;257.52;66.43;;;18.60;99.90;;;;;;5043971;28;20065;-51
2023/08/25 05:31:44;;;;;;;140.82;54.65;;;18.60;99.90;;;;;;5047547;28;20348;-53
2023/08/25 05:34:09;;;;;;;188.02;56.63;;;18.60;99.90;;;;;;5049403;28;20032;-52
2023/08/25 05:36:35;;;;;;;;;;;18.60;99.90;;;;;;5048818;28;20080;-52
2023/08/25 05:39:01;;;;;;;238.30;54.47;;;18.70;99.90;;;;;;5046448;28;19928;-52
2023/08/25 05:41:27;;;;;;;458.02;75.97;;;18.70;99.90;;;;;;5041500;28;20056;-51
2023/08/25 05:43:52;;;;;;;399.90;70.43;;;18.60;99.90;;;;;;5042552;28;20033;-51
2023/08/25 05:46:18;;;;;;;322.05;60.45;;;18.60;99.90;;;;;;5042592;28;20094;-53
2023/08/25 05:48:44;;;;;;;423.60;77.47;;;18.60;99.90;;;;;;5047934;28;20044;-52
2023/08/25 05:51:09;;;;;;;;;;;18.70;99.90;;;;;;5049114;28;20456;-54
2023/08/25 05:53:35;;;;;;;232.50;64.60;;;18.70;99.90;;;;;;5049497;28;20011;-52
2023/08/25 05:56:00;;;;;;;;;;;18.70;99.90;;;;;;5049615;28;20040;-54
2023/08/25 05:58:26;;;;;;;158.63;55.45;;;18.60;99.90;;;;;;5048537;28;19925;-51
2023/08/25 06:00:51;;;;;;;123.07;55.10;;;18.70;99.90;;;;;;5048762;28;20123;-52
2023/08/25 06:03:18;;;;;;;171.55;59.15;;;18.60;99.90;;;;;;5049090;28;20041;-52
2023/08/25 06:05:46;;;;;;;107.60;56.38;;;18.80;99.90;;;;;;5048557;28;20045;-53
2023/08/25 06:08:12;;;;;;;115.47;60.50;;;18.80;99.90;;;;;;5048622;28;20557;-52
2023/08/25 06:10:38;;;;;;;107.40;58.25;;;18.90;99.90;;;;;;5048791;28;20045;-52
2023/08/25 06:13:03;;;;;;;;;;;19.00;99.90;;;;;;5049091;28;20033;-51
2023/08/25 06:15:29;;;;;;;81.07;54.92;;;19.00;99.90;;;;;;5047868;28;20398;-51
2023/08/25 06:17:55;;;;;;;;;;;19.00;99.90;;;;;;5045525;28;20037;-51
2023/08/25 06:20:23;;;;;;;88.80;56.08;;;19.10;99.90;;;;;;5041064;28;19970;-53
2023/08/25 06:22:49;;;;;;;86.95;55.22;;;19.10;99.90;;;;;;5051154;28;20125;-51
2023/08/25 06:25:14;;;;;;;97.07;59.97;;;19.20;99.90;;;;;;5044497;28;20562;-53
2023/08/25 06:27:40;;;;;;;103.50;62.25;;;19.20;99.90;;;;;;5049428;28;20120;-57
2023/08/25 06:30:06;;;;;;;;;;;19.20;99.90;;;;;;5041515;28;20044;-51
2023/08/25 06:32:31;;;;;;;85.72;55.30;;;19.30;99.90;;;;;;5043340;28;19923;-52
2023/08/25 06:34:58;;;;;;;77.47;52.25;;;19.30;99.90;;;;;;5035692;28;20147;-53
2023/08/25 06:37:23;;;;;;;80.72;55.03;;;19.30;99.90;;;;;;5048088;28;20567;-51
2023/08/25 06:39:49;;;;;;;;;;;19.30;99.90;;;;;;5052230;28;20048;-54
2023/08/25 06:42:15;;;;;;;73.47;50.60;;;19.40;99.90;;;;;;5047131;28;19917;-51
2023/08/25 06:44:41;;;;;;;67.45;49.45;;;19.40;99.90;;;;;;5037021;28;20124;-52
2023/08/25 06:47:06;;;;;;;;;;;19.50;99.90;;;;;;5048483;28;20037;-53
2023/08/25 06:49:32;;;;;;;71.25;47.88;;;19.50;99.90;;;;;;5044214;28;19921;-56
2023/08/25 06:51:57;;;;;;;;;;;19.50;99.90;;;;;;5047968;28;20037;-51
2023/08/25 06:54:24;;;;;;;62.05;45.67;;;19.60;99.90;;;;;;5043204;28;19923;-51
2023/08/25 06:56:52;;;;;;;60.90;45.20;;;19.70;99.90;;;;;;5045001;28;20033;-53
2023/08/25 06:59:18;;;;;;;57.25;43.25;;;19.80;99.90;;;;;;5049185;28;20394;-53
2023/08/25 07:01:44;;;;;;;58.40;45.45;;;19.80;99.90;;;;;;5045176;28;20037;-52
2023/08/25 07:04:10;;;;;;;;;;;19.90;99.90;;;;;;5044635;28;20036;-51
2023/08/25 07:06:36;;;;;;;58.65;44.17;;;20.00;99.90;;;;;;5046030;28;19916;-51
2023/08/25 07:09:02;;;;;;;;;;;20.10;99.90;;;;;;5048139;28;20040;-52
2023/08/25 07:11:28;;;;;;;55.25;42.45;;;20.20;99.90;;;;;;5046620;28;19959;-51
2023/08/25 07:13:53;;;;;;;;;;;20.20;99.90;;;;;;5046239;28;20033;-52
2023/08/25 07:16:19;;;;;;;50.97;42.47;;;20.20;99.90;;;;;;5045599;28;19928;-55
2023/08/25 07:18:45;;;;;;;;;;;20.20;99.90;;;;;;5044519;28;20124;-51
2023/08/25 07:21:11;;;;;;;55.13;41.80;;;20.20;99.90;;;;;;5038373;28;19947;-52
2023/08/25 07:23:37;;;;;;;57.80;43.50;;;20.20;99.90;;;;;;5039573;28;20431;-54
2023/08/25 07:26:03;;;;;;;;;;;20.20;99.90;;;;;;5046007;28;20033;-52
2023/08/25 07:28:29;;;;;;;56.35;43.05;;;20.30;99.90;;;;;;5046174;28;19921;-52
2023/08/25 07:30:56;;;;;;;54.35;40.22;;;20.40;99.90;;;;;;5046924;28;20082;-55
2023/08/25 07:33:22;;;;;;;58.42;43.83;;;20.40;99.90;;;;;;5030001;28;20096;-54
2023/08/25 07:35:48;;;;;;;;;;;20.40;99.90;;;;;;5049621;28;20067;-55
2023/08/25 07:38:14;;;;;;;53.53;42.00;;;20.40;99.90;;;;;;5047450;28;20386;-53
2023/08/25 07:40:40;;;;;;;52.00;42.47;;;20.40;99.90;;;;;;5043108;28;20052;-52
2023/08/25 07:43:06;;;;;;;;;;;20.50;99.90;;;;;;5046743;28;20471;-53
2023/08/25 07:45:33;;;;;;;50.97;41.00;;;20.50;99.90;;;;;;5049937;28;20015;-51
2023/08/25 07:48:01;;;;;;;52.00;41.30;;;20.60;99.90;;;;;;5046463;28;20068;-51
2023/08/25 07:50:30;;;;;;;55.65;42.75;;;20.70;99.90;;;;;;5049476;28;20119;-52
2023/08/25 07:52:57;;;;;;;50.80;41.00;;;20.70;99.90;;;;;;5044935;28;20037;-51
2023/08/25 07:55:23;;;;;;;48.50;40.53;;;20.70;99.90;;;;;;5041009;28;20040;-52
2023/08/25 07:57:48;;;;;;;;;;;20.70;99.90;;;;;;5050453;28;20494;-52
2023/08/25 08:00:17;;;;;;;48.58;39.00;;;20.70;99.90;;;;;;5048111;28;20373;-55
2023/08/25 08:02:47;;;;;;;54.10;41.70;;;20.60;99.90;;;;;;5049809;28;20048;-52
2023/08/25 08:05:17;;;;;;;51.38;42.83;;;20.60;99.90;;;;;;5044287;28;20044;-52
2023/08/25 08:07:44;;;;;;;55.75;42.80;;;20.60;99.90;;;;;;5044034;28;20049;-52
2023/08/25 08:10:11;;;;;;;47.40;41.35;;;20.60;99.90;;;;;;5045770;28;20037;-54
2023/08/25 08:12:37;;;;;;;49.95;42.40;;;20.70;99.90;;;;;;5047237;28;20063;-53
2023/08/25 08:15:04;;;;;;;54.90;44.35;;;20.70;99.90;;;;;;5045344;28;20376;-51
2023/08/25 08:17:30;;;;;;;55.92;44.15;;;20.80;99.90;;;;;;5049685;28;20051;-54
2023/08/25 08:19:56;;;;;;;;;;;20.80;99.90;;;;;;5046473;28;20045;-55
2023/08/25 08:22:21;;;;;;;51.33;41.95;;;20.80;99.90;;;;;;5046660;28;20407;-51
2023/08/25 08:24:48;;;;;;;;;;;20.80;99.90;;;;;;5048467;28;20182;-55
2023/08/25 08:27:15;;;;;;;51.25;41.60;;;20.80;99.90;;;;;;5046944;28;19924;-52
2023/08/25 08:29:42;;;;;;;52.97;42.05;;;20.90;99.90;;;;;;5028277;28;20041;-54
2023/08/25 08:32:07;;;;;;;52.72;42.33;;;20.90;99.90;;;;;;5047080;28;20052;-53
2023/08/25 08:34:33;;;;;;;;;;;20.90;99.90;;;;;;5047937;28;20032;-52
2023/08/25 08:36:59;;;;;;;48.85;41.08;;;20.90;99.90;;;;;;5047094;28;19960;-53
2023/08/25 08:39:24;;;;;;;;;;;20.90;99.90;;;;;;5046942;28;20064;-52
2023/08/25 08:41:52;;;;;;;57.90;42.33;;;20.90;99.90;;;;;;5047263;28;19924;-54
2023/08/25 08:44:19;;;;;;;48.58;41.15;;;20.90;99.90;;;;;;5046987;28;20406;-53
2023/08/25 08:46:48;;;;;;;50.25;40.67;;;20.90;99.90;;;;;;5043545;28;20166;-54
2023/08/25 08:49:14;;;;;;;49.95;41.58;;;20.80;99.90;;;;;;5046711;28;20118;-54
2023/08/25 08:51:41;;;;;;;;;;;20.80;99.90;;;;;;5045728;28;20520;-54
2023/08/25 08:54:07;;;;;;;43.70;35.90;;;20.80;99.90;;;;;;5045341;28;19920;-52
2023/08/25 08:56:34;;;;;;;;;;;20.80;99.90;;;;;;5046358;28;20174;-54
2023/08/25 08:59:00;;;;;;;50.13;39.63;;;20.90;99.90;;;;;;5046298;28;20503;-52
2023/08/25 09:01:27;;;;;;;46.60;36.33;;;20.90;99.90;;;;;;5041451;28;20086;-52
2023/08/25 09:03:56;;;;;;;41.15;36.35;;;20.90;99.90;;;;;;5043763;28;20064;-53
2023/08/25 09:06:21;;;;;;;101.10;40.33;;;20.90;99.90;;;;;;5043223;28;20048;-53
2023/08/25 09:08:50;;;;;;;;;;;20.90;99.90;;;;;;5044374;28;20044;-55
2023/08/25 09:11:15;;;;;;;53.72;35.28;;;21.00;99.90;;;;;;5020907;28;20397;-53
2023/08/25 09:13:51;;;;;;;;;;;21.00;99.90;;;;;;5046286;28;20029;-54
2023/08/25 09:16:17;;;;;;;48.83;37.20;;;21.00;99.90;;;;;;5043751;28;19991;-56
2023/08/25 09:18:45;;;;;;;;;;;21.00;99.90;;;;;;5038637;28;20060;-53
2023/08/25 09:21:16;;;;;;;49.40;35.97;;;21.00;99.90;;;;;;5046067;28;19921;-56
2023/08/25 09:24:21;;;;;;;51.45;39.35;;;21.10;99.90;;;;;;5044417;28;20483;-55
2023/08/25 09:26:48;;;;;;;47.03;38.38;;;21.10;99.90;;;;;;4967184;28;20066;-53
2023/08/25 09:29:14;;;;;;;46.90;39.00;;;21.10;99.90;;;;;;4966438;28;20120;-55
2023/08/25 09:31:41;;;;;;;48.92;38.25;;;21.10;99.90;;;;;;4967266;28;20062;-55
2023/08/25 09:34:09;;;;;;;52.00;40.33;;;21.20;99.90;;;;;;4968610;28;20050;-55
2023/08/25 09:36:53;;;;;;;46.15;37.45;;;21.20;99.90;;;;;;4965059;28;20057;-55
2023/08/25 09:39:20;;;;;;;46.63;36.38;;;21.20;99.90;;;;;;4963413;28;20046;-55
2023/08/25 09:41:46;;;;;;;47.33;38.22;;;21.20;99.90;;;;;;4965048;28;20042;-55
2023/08/25 09:44:12;;;;;;;47.80;40.08;;;21.20;99.90;;;;;;4967061;28;20097;-54
2023/08/25 09:46:38;;;;;;;;;;;21.20;99.90;;;;;;4963314;28;20050;-55
2023/08/25 09:49:07;;;;;;;42.50;33.83;;;21.20;99.90;;;;;;4965169;28;19945;-56
2023/08/25 09:51:39;;;;;;;45.35;39.17;;;21.10;99.90;;;;;;4962254;28;20039;-54
2023/08/25 09:54:18;;;;;;;53.10;42.88;;;21.20;99.90;;;;;;4968178;28;20046;-53
2023/08/25 09:56:46;;;;;;;55.20;43.67;;;21.20;99.90;;;;;;4971293;28;20078;-56
2023/08/25 09:59:14;;;;;;;53.22;43.45;;;21.10;99.90;;;;;;4967115;28;20043;-53
2023/08/25 10:01:43;;;;;;;57.45;42.70;;;21.00;99.90;;;;;;4989711;28;20441;-52
2023/08/25 10:04:09;;;;;;;66.97;47.75;;;21.00;99.90;;;;;;5045897;28;20050;-53
2023/08/25 10:06:37;;;;;;;;;;;20.90;99.90;;;;;;5048002;28;20044;-52
2023/08/25 10:09:04;;;;;;;63.33;44.63;;;20.90;99.90;;;;;;5047448;28;19927;-52
2023/08/25 10:11:41;;;;;;;58.63;43.17;;;20.90;99.90;;;;;;5049071;28;20033;-52
2023/08/25 10:14:10;;;;;;;65.28;48.47;;;20.90;99.90;;;;;;5028709;28;20037;-54
2023/08/25 10:17:03;;;;;;;57.95;44.63;;;20.90;99.90;;;;;;5049049;28;20072;-53
2023/08/25 10:19:35;;;;;;;53.60;41.90;;;21.00;99.90;;;;;;5044653;28;20053;-53
2023/08/25 10:22:04;;;;;;;63.22;45.33;;;21.00;99.90;;;;;;5049525;28;20056;-54
2023/08/25 10:24:31;;;;;;;56.67;43.55;;;21.10;99.90;;;;;;5049799;28;20052;-52
2023/08/25 10:26:58;;;;;;;56.80;39.15;;;21.10;99.90;;;;;;5047669;28;20040;-55
2023/08/25 10:29:24;;;;;;;50.20;40.63;;;21.10;99.90;;;;;;5048638;28;20051;-52
2023/08/25 10:31:56;;;;;;;41.35;33.55;;;21.20;99.90;;;;;;5048952;28;20043;-53
2023/08/25 10:34:35;;;;;;;46.33;38.47;;;21.20;99.90;;;;;;5045201;28;20045;-55
2023/08/25 10:37:22;;;;;;;48.60;39.80;;;21.10;99.90;;;;;;5046113;28;20048;-55
2023/08/25 10:39:48;;;;;;;33.08;26.13;;;21.10;99.90;;;;;;5044074;28;20076;-53
2023/08/25 10:42:17;;;;;;;;;;;21.00;99.90;;;;;;5047022;28;20503;-52
2023/08/25 10:44:43;;;;;;;28.38;22.17;;;20.90;99.90;;;;;;5047782;28;19916;-53
2023/08/25 10:47:09;;;;;;;;;;;20.80;99.90;;;;;;5048246;28;20033;-51
2023/08/25 10:49:38;;;;;;;17.95;13.40;;;20.70;99.90;;;;;;5045106;28;20440;-55
2023/08/25 10:52:15;;;;;;;13.00;11.00;;;20.60;99.90;;;;;;5048742;28;20117;-51
2023/08/25 10:54:42;;;;;;;12.73;9.77;;;20.50;99.90;;;;;;5045093;28;20052;-54
2023/08/25 10:57:18;;;;;;;10.80;8.05;;;20.40;99.90;;;;;;5044300;28;20048;-52
2023/08/25 10:59:50;;;;;;;11.20;7.32;;;20.30;99.90;;;;;;5044910;28;20063;-52
2023/08/25 11:02:36;;;;;;;10.02;8.00;;;20.30;99.90;;;;;;5030945;28;20103;-53
2023/08/25 11:05:33;;;;;;;7.57;6.77;;;20.30;99.90;;;;;;5047296;28;20044;-51
2023/08/25 11:08:03;;;;;;;6.47;5.22;;;20.30;99.90;;;;;;5047570;28;20041;-55
2023/08/25 11:10:38;;;;;;;4.00;3.50;;;20.30;99.90;;;;;;5049407;28;20501;-53
2023/08/25 11:13:07;;;;;;;4.22;2.90;;;20.30;99.90;;;;;;5043705;28;20033;-55
2023/08/25 11:15:35;;;;;;;4.32;3.72;;;20.30;99.90;;;;;;5048611;28;20528;-51
2023/08/25 11:18:01;;;;;;;6.57;3.42;;;20.30;99.90;;;;;;5048466;28;20044;-55
2023/08/25 11:20:29;;;;;;;4.72;3.90;;;20.30;99.90;;;;;;5047370;28;20097;-52
2023/08/25 11:23:00;;;;;;;6.00;4.68;;;20.30;99.90;;;;;;5048029;28;20445;-52
2023/08/25 11:25:26;;;;;;;6.75;5.40;;;20.30;99.90;;;;;;5047938;28;20064;-52
2023/08/25 11:27:52;;;;;;;7.85;6.43;;;20.30;99.90;;;;;;5048220;28;20037;-52
2023/08/25 11:30:18;;;;;;;;;;;20.30;99.90;;;;;;5047974;28;20044;-53
2023/08/25 11:32:48;;;;;;;8.23;7.38;;;20.20;99.90;;;;;;5047365;28;20297;-53
2023/08/25 11:35:14;;;;;;;10.38;7.05;;;20.20;99.90;;;;;;5045219;28;20151;-54
2023/08/25 11:37:40;;;;;;;8.90;6.55;;;20.10;99.90;;;;;;5029117;28;20116;-55
2023/08/25 11:40:19;;;;;;;7.40;4.28;;;20.10;99.90;;;;;;5048171;28;20094;-53
2023/08/25 11:42:46;;;;;;;5.13;4.22;;;20.10;99.90;;;;;;5048944;28;20041;-52
2023/08/25 11:45:13;;;;;;;6.45;4.15;;;20.10;99.90;;;;;;5048745;28;20045;-55
2023/08/25 11:47:39;;;;;;;5.57;3.97;;;20.10;99.90;;;;;;5044057;28;20053;-52
2023/08/25 11:50:06;;;;;;;5.57;3.53;;;20.10;99.90;;;;;;5047666;28;20033;-52
2023/08/25 11:52:35;;;;;;;4.47;4.03;;;20.10;99.90;;;;;;5048188;28;20455;-52
2023/08/25 11:55:01;;;;;;;6.82;4.43;;;20.20;99.90;;;;;;5048162;28;20065;-52
2023/08/25 11:57:33;;;;;;;;;;;20.20;99.90;;;;;;5048416;28;20090;-53
2023/08/25 12:00:02;;;;;;;3.78;3.00;;;20.30;99.90;;;;;;5045838;28;19974;-52
2023/08/25 12:02:28;;;;;;;3.22;2.53;;;20.30;99.90;;;;;;5048385;28;20440;-53
2023/08/25 12:04:55;;;;;;;4.68;2.50;;;20.40;99.90;;;;;;5046196;28;20039;-52
2023/08/25 12:07:25;;;;;;;3.03;2.63;;;20.40;99.90;;;;;;5048130;28;20053;-53
2023/08/25 12:09:55;;;;;;;6.13;2.45;;;20.40;99.90;;;;;;5046095;28;20036;-54
2023/08/25 12:12:21;;;;;;;3.28;2.42;;;20.40;99.90;;;;;;5047926;28;20057;-52
2023/08/25 12:14:50;;;;;;;2.05;1.80;;;20.40;99.90;;;;;;5045253;28;20304;-52
2023/08/25 12:17:24;;;;;;;1.70;1.58;;;20.40;99.90;;;;;;5046386;28;20398;-52
2023/08/25 12:19:50;;;;;;;1.88;1.77;;;20.40;99.90;;;;;;5045313;28;20127;-55
2023/08/25 12:22:16;;;;;;;;;;;20.40;99.90;;;;;;5048307;28;20112;-53
2023/08/25 12:24:42;;;;;;;3.35;3.05;;;20.40;99.90;;;;;;5040355;28;20328;-54
2023/08/25 12:27:08;;;;;;;4.68;4.28;;;20.40;99.90;;;;;;5046456;28;20041;-56
2023/08/25 12:29:34;;;;;;;;;;;20.30;99.90;;;;;;5046388;28;20048;-52
2023/08/25 12:32:00;;;;;;;9.95;8.93;;;20.40;99.90;;;;;;5048044;28;20370;-52
2023/08/25 12:34:25;;;;;;;;;;;20.30;99.90;;;;;;5047798;28;20041;-52
2023/08/25 12:36:51;;;;;;;11.70;10.50;;;20.30;99.90;;;;;;5047280;28;19932;-52
2023/08/25 12:39:18;;;;;;;;;;;20.40;99.90;;;;;;5046967;28;20112;-52
2023/08/25 12:41:43;;;;;;;16.77;14.97;;;20.40;99.90;;;;;;5047098;28;19963;-53
2023/08/25 12:44:10;;;;;;;;;;;20.40;99.90;;;;;;5046709;28;20445;-53
2023/08/25 12:46:35;;;;;;;17.23;15.52;;;20.40;99.90;;;;;;5046016;28;19917;-54
2023/08/25 12:49:01;;;;;;;21.42;19.33;;;20.40;99.90;;;;;;5046390;28;20095;-52
2023/08/25 12:51:27;;;;;;;24.42;21.85;;;20.40;99.90;;;;;;5047283;28;20116;-52